GMMH

Details ICAO GMMH (VIL)
Name DAKHLA
Region Morocco
Timezone Africa/El_Aaiun (UTC+0.0)
Plans Departing 22
Arriving 22
Stats Elevation 36 ft / 11 m (AMSL)
Location 23.718294° -15.931993°
Runways 1
Magnetic Variation 5.319° W
Sunrise 2017-06-28 06:20:35 UTC / 2017-06-28 06:20:35 Local
Sunset 2017-06-28 19:55:47 UTC / 2017-06-28 19:55:47 Local
Advertisement - Login to hide

Runways

ID Width Length Bearing (true) Bearing (mag) Surface Threshold Offset Overrun Length
03 148 ft / 45 m 9,886 ft / 3,013 m 22.66° 27.98° Asphalt 0 ft / 0 m 323 ft / 98 m
21 148 ft / 45 m 9,886 ft / 3,013 m 202.67° 207.99° Asphalt 0 ft / 0 m 377 ft / 115 m

Map

Weather


0- 5 10 15 20 25 30 35+ Temperature / ° C

Clouds and Precipitation
Forecast for 2017-06-28 18:00 UTC. Updated 2 hours ago

Ground ~20,000 ft ~40,000 ft Winds

METAR

GMMH 281700Z 01020KT 5000 NSC 23/19 Q1015 NOSIG

TAF

TAF GMMH 281100Z 2812/2918 31005KT 6000 NSC PROB30 2812/2818 3000 DU BECMG 2818/2820 01022KT NSW PROB30 2822/2901 01020G30KT

Frequencies

Tower 118.10 MHz TWR
Warning: Do not use this data for real-world aviation or navigation. No guarantee of current accuracy is given.